createdAt,value
2019-05-28T00:00:21.628Z,5.70
2019-05-28T00:01:20.619Z,7.10
2019-05-28T00:02:20.607Z,6.60
2019-05-28T00:03:20.595Z,5.90
2019-05-28T00:04:20.578Z,6.20
2019-05-28T00:05:20.619Z,4.60
2019-05-28T00:06:20.564Z,4.60
2019-05-28T00:07:20.564Z,5.60
2019-05-28T00:08:20.551Z,6.00
2019-05-28T00:09:20.550Z,5.60
2019-05-28T00:10:20.534Z,5.80
2019-05-28T00:11:20.510Z,6.20
2019-05-28T00:12:20.499Z,4.30
2019-05-28T00:13:20.492Z,5.70
2019-05-28T00:14:20.477Z,5.40
2019-05-28T00:15:20.478Z,5.90
2019-05-28T00:16:20.450Z,5.80
2019-05-28T00:17:20.440Z,4.80
2019-05-28T00:18:20.442Z,6.00
2019-05-28T00:19:20.427Z,5.60
2019-05-28T00:20:20.544Z,5.20
2019-05-28T00:21:20.419Z,5.10
2019-05-28T00:22:20.398Z,4.10
2019-05-28T00:23:20.371Z,5.40
2019-05-28T00:24:20.370Z,6.00
2019-05-28T00:25:20.385Z,7.50
2019-05-28T00:26:20.340Z,4.70
2019-05-28T00:27:20.352Z,5.20
2019-05-28T00:28:20.314Z,5.80
2019-05-28T00:29:20.302Z,4.50
2019-05-28T00:30:21.094Z,4.40
2019-05-28T00:31:20.305Z,6.10
2019-05-28T00:32:20.279Z,4.40
2019-05-28T00:33:20.274Z,7.60
2019-05-28T00:34:20.260Z,5.90
2019-05-28T00:35:20.271Z,5.80
2019-05-28T00:36:20.229Z,6.70
2019-05-28T00:37:20.220Z,7.40
2019-05-28T00:38:20.214Z,7.20
2019-05-28T00:39:20.200Z,5.80
2019-05-28T00:40:20.192Z,7.80
2019-05-28T00:41:20.225Z,5.90
2019-05-28T00:42:20.172Z,6.40
2019-05-28T00:43:20.159Z,6.40
2019-05-28T00:44:20.148Z,7.50
2019-05-28T00:45:20.137Z,6.90
2019-05-28T00:46:20.147Z,5.80
2019-05-28T00:47:20.114Z,7.50
2019-05-28T00:48:20.102Z,7.10
2019-05-28T00:49:20.096Z,7.40
2019-05-28T00:50:20.079Z,6.60
2019-05-28T00:51:20.111Z,8.00
2019-05-28T00:52:20.065Z,6.40
2019-05-28T00:53:20.048Z,6.00
2019-05-28T00:54:20.052Z,5.50
2019-05-28T00:55:20.041Z,6.80
2019-05-28T00:56:20.187Z,6.20
2019-05-28T00:57:20.007Z,5.40
2019-05-28T00:58:19.997Z,8.80
2019-05-28T00:59:19.983Z,5.50
2019-05-28T01:00:36.243Z,7.10
2019-05-28T01:01:20.989Z,7.10
2019-05-28T01:02:19.951Z,7.60
2019-05-28T01:03:19.959Z,9.50
2019-05-28T01:04:19.971Z,8.10
2019-05-28T01:05:19.918Z,5.30
2019-05-28T01:06:19.927Z,6.20
2019-05-28T01:07:19.892Z,6.70
2019-05-28T01:08:19.891Z,7.40
2019-05-28T01:09:19.876Z,7.60
2019-05-28T01:10:19.870Z,6.50
2019-05-28T01:11:19.876Z,8.20
2019-05-28T01:12:19.843Z,6.40
2019-05-28T01:13:19.832Z,6.60
2019-05-28T01:14:19.818Z,9.60
2019-05-28T01:15:19.815Z,8.90
2019-05-28T01:16:19.821Z,8.50
2019-05-28T01:17:19.812Z,8.00
2019-05-28T01:18:19.784Z,6.60
2019-05-28T01:19:19.764Z,7.20
2019-05-28T01:20:19.758Z,8.10
2019-05-28T01:21:19.759Z,8.30
2019-05-28T01:22:19.730Z,8.90
2019-05-28T01:23:19.730Z,8.90
2019-05-28T01:24:19.717Z,8.80
2019-05-28T01:25:19.708Z,6.00
2019-05-28T01:26:19.715Z,9.60
2019-05-28T01:27:19.695Z,7.20
2019-05-28T01:28:19.703Z,8.70
2019-05-28T01:29:19.660Z,7.90
2019-05-28T01:30:19.657Z,8.20
2019-05-28T01:31:19.655Z,9.40
2019-05-28T01:32:19.628Z,10.00
2019-05-28T01:33:19.614Z,8.20
2019-05-28T01:34:19.601Z,8.00
2019-05-28T01:35:19.598Z,7.40
2019-05-28T01:36:19.618Z,7.30
2019-05-28T01:37:19.573Z,8.40
2019-05-28T01:38:19.566Z,8.40
2019-05-28T01:39:19.548Z,9.40
2019-05-28T01:40:23.023Z,8.10
2019-05-28T01:41:19.531Z,9.20
2019-05-28T01:42:19.529Z,7.00
2019-05-28T01:43:19.512Z,7.80
2019-05-28T01:44:19.505Z,9.70
2019-05-28T01:45:19.483Z,10.60
2019-05-28T01:46:19.471Z,7.80
2019-05-28T01:47:19.490Z,8.40
2019-05-28T01:48:19.456Z,7.50
2019-05-28T01:49:19.450Z,6.50
2019-05-28T01:50:19.454Z,6.90
2019-05-28T01:51:19.417Z,8.50
2019-05-28T01:52:19.447Z,7.90
2019-05-28T01:53:19.396Z,6.70
2019-05-28T01:54:19.389Z,6.20
2019-05-28T01:55:19.383Z,7.30
2019-05-28T01:56:19.372Z,8.80
2019-05-28T01:57:19.377Z,6.70
2019-05-28T01:58:19.351Z,8.50
2019-05-28T01:59:19.330Z,6.80
2019-05-28T02:00:19.336Z,7.00
2019-05-28T02:01:19.316Z,7.70
2019-05-28T02:02:19.323Z,6.70
2019-05-28T02:03:19.299Z,7.60
2019-05-28T02:04:19.277Z,6.70
2019-05-28T02:05:19.267Z,6.70
2019-05-28T02:06:19.256Z,8.10
2019-05-28T02:07:19.264Z,8.70
2019-05-28T02:08:19.239Z,6.70
2019-05-28T02:09:19.229Z,8.00
2019-05-28T02:10:19.227Z,6.80
2019-05-28T02:11:19.200Z,6.20
2019-05-28T02:12:19.205Z,7.10
2019-05-28T02:13:19.203Z,6.70
2019-05-28T02:14:19.175Z,7.40
2019-05-28T02:15:19.164Z,9.00
2019-05-28T02:16:19.149Z,7.50
2019-05-28T02:17:19.151Z,8.20
2019-05-28T02:18:19.123Z,8.60
2019-05-28T02:19:19.120Z,7.90
2019-05-28T02:20:19.108Z,7.30
2019-05-28T02:21:19.096Z,9.10
2019-05-28T02:22:19.122Z,7.60
2019-05-28T02:23:19.069Z,7.40
2019-05-28T02:24:19.067Z,6.90
2019-05-28T02:25:19.051Z,8.60
2019-05-28T02:26:19.051Z,6.70
2019-05-28T02:27:19.042Z,8.40
2019-05-28T02:28:19.034Z,7.20
2019-05-28T02:29:19.010Z,8.90
2019-05-28T02:30:19.009Z,6.10
2019-05-28T02:31:27.430Z,8.20
2019-05-28T02:32:19.971Z,7.20
2019-05-28T02:33:18.985Z,7.30
2019-05-28T02:34:18.972Z,9.10
2019-05-28T02:35:18.942Z,8.60
2019-05-28T02:36:18.992Z,6.70
2019-05-28T02:37:18.927Z,6.40
2019-05-28T02:38:18.919Z,8.00
2019-05-28T02:39:18.911Z,9.30
2019-05-28T02:40:18.898Z,9.60
2019-05-28T02:41:18.878Z,9.30
2019-05-28T02:42:18.900Z,8.10
2019-05-28T02:43:18.874Z,7.00
2019-05-28T02:44:18.859Z,9.80
2019-05-28T02:45:18.836Z,10.70
2019-05-28T02:46:18.834Z,8.80
2019-05-28T02:47:18.812Z,8.10
2019-05-28T02:48:18.818Z,10.30
2019-05-28T02:49:18.808Z,9.00
2019-05-28T02:50:18.773Z,9.10
2019-05-28T02:51:18.768Z,11.10
2019-05-28T02:52:18.761Z,9.90
2019-05-28T02:53:18.761Z,10.40
2019-05-28T02:54:18.737Z,8.70
2019-05-28T02:55:18.718Z,7.90
2019-05-28T02:56:18.710Z,7.30
2019-05-28T02:57:18.702Z,9.40
2019-05-28T02:58:18.836Z,10.70
2019-05-28T02:59:18.702Z,9.00
2019-05-28T03:00:18.677Z,7.40
2019-05-28T03:01:18.657Z,8.20
2019-05-28T03:02:18.651Z,8.70
2019-05-28T03:03:18.632Z,9.10
2019-05-28T03:04:18.641Z,10.30
2019-05-28T03:05:18.620Z,8.90
2019-05-28T03:06:18.608Z,7.30
2019-05-28T03:07:18.585Z,7.40
2019-05-28T03:08:18.587Z,7.70
2019-05-28T03:09:18.586Z,10.30
2019-05-28T03:10:18.556Z,9.20
2019-05-28T03:11:18.553Z,10.00
2019-05-28T03:12:18.540Z,8.20
2019-05-28T03:13:18.527Z,11.00
2019-05-28T03:14:18.545Z,9.20
2019-05-28T03:15:18.502Z,7.70
2019-05-28T03:16:18.491Z,14.60
2019-05-28T03:17:18.480Z,9.20
2019-05-28T03:18:18.467Z,10.10
2019-05-28T03:19:18.481Z,8.90
2019-05-28T03:20:18.454Z,9.60
2019-05-28T03:21:18.440Z,7.30
2019-05-28T03:22:18.426Z,8.60
2019-05-28T03:23:18.420Z,9.60
2019-05-28T03:24:18.426Z,8.70
2019-05-28T03:25:18.409Z,8.30
2019-05-28T03:26:18.395Z,9.10
2019-05-28T03:27:18.372Z,7.50
2019-05-28T03:28:18.358Z,9.60
2019-05-28T03:29:18.364Z,8.10
2019-05-28T03:30:18.339Z,8.10
2019-05-28T03:31:18.336Z,8.30
2019-05-28T03:32:18.335Z,9.00
2019-05-28T03:33:18.428Z,8.10
2019-05-28T03:34:18.326Z,9.80
2019-05-28T03:35:18.288Z,8.20
2019-05-28T03:36:18.274Z,8.30
2019-05-28T03:37:18.265Z,10.60
2019-05-28T03:38:18.264Z,9.40
2019-05-28T03:39:18.252Z,8.80
2019-05-28T03:40:18.235Z,6.50
2019-05-28T03:41:18.220Z,10.40
2019-05-28T03:42:18.204Z,7.90
2019-05-28T03:43:18.201Z,8.70
2019-05-28T03:44:18.202Z,9.40
2019-05-28T03:45:18.198Z,10.10
2019-05-28T03:46:18.171Z,7.50
2019-05-28T03:47:18.155Z,7.80
2019-05-28T03:48:18.143Z,6.20
2019-05-28T03:49:18.149Z,9.00
2019-05-28T03:50:18.124Z,8.50
2019-05-28T03:51:18.113Z,8.60
2019-05-28T03:52:18.099Z,9.30
2019-05-28T03:53:18.091Z,8.10
2019-05-28T03:54:18.087Z,8.00
2019-05-28T03:55:18.074Z,9.30
2019-05-28T03:56:18.055Z,8.10
2019-05-28T03:57:18.052Z,7.40
2019-05-28T03:58:18.041Z,7.50
2019-05-28T03:59:18.042Z,8.80
2019-05-28T04:00:18.026Z,6.80
2019-05-28T04:01:17.999Z,7.80
2019-05-28T04:02:23.541Z,6.30
2019-05-28T04:03:18.989Z,9.40
2019-05-28T04:04:17.967Z,8.40
2019-05-28T04:05:17.975Z,9.60
2019-05-28T04:06:17.949Z,9.60
2019-05-28T04:07:17.931Z,7.90
2019-05-28T04:08:17.947Z,7.80
2019-05-28T04:09:17.915Z,6.70
2019-05-28T04:10:17.920Z,7.10
2019-05-28T04:11:17.894Z,6.30
2019-05-28T04:12:17.888Z,10.80
2019-05-28T04:13:17.871Z,10.20
2019-05-28T04:14:17.856Z,8.60
2019-05-28T04:15:17.872Z,7.60
2019-05-28T04:16:17.849Z,6.30
2019-05-28T04:17:17.829Z,6.90
2019-05-28T04:18:17.824Z,8.60
2019-05-28T04:19:17.802Z,9.50
2019-05-28T04:20:17.811Z,8.70
2019-05-28T04:21:17.797Z,6.60
2019-05-28T04:22:17.769Z,5.80
2019-05-28T04:23:17.770Z,7.70
2019-05-28T04:24:17.762Z,7.50
2019-05-28T04:25:17.771Z,7.00
2019-05-28T04:26:17.728Z,8.90
2019-05-28T04:27:17.725Z,5.90
2019-05-28T04:28:17.709Z,6.50
2019-05-28T04:29:17.700Z,5.00
2019-05-28T04:30:17.707Z,6.50
2019-05-28T04:31:17.673Z,8.00
2019-05-28T04:32:17.665Z,6.30
2019-05-28T04:33:17.656Z,6.40
2019-05-28T04:34:17.649Z,7.30
2019-05-28T04:35:17.652Z,7.10
2019-05-28T04:36:17.627Z,7.30
2019-05-28T04:37:17.613Z,5.10
2019-05-28T04:38:17.611Z,7.20
2019-05-28T04:39:17.586Z,7.50
2019-05-28T04:40:17.742Z,6.20
2019-05-28T04:41:17.573Z,6.70
2019-05-28T04:42:17.565Z,8.00
2019-05-28T04:43:17.543Z,8.20
2019-05-28T04:44:17.563Z,6.10
2019-05-28T04:45:17.546Z,7.90
2019-05-28T04:46:17.513Z,6.50
2019-05-28T04:47:17.511Z,6.50
2019-05-28T04:48:17.495Z,7.00
2019-05-28T04:49:17.484Z,7.20
2019-05-28T04:50:17.488Z,6.90
2019-05-28T04:51:17.463Z,6.40
2019-05-28T04:52:17.452Z,6.50
2019-05-28T04:53:17.445Z,9.80
2019-05-28T04:54:17.424Z,6.80
2019-05-28T04:55:17.587Z,6.30
2019-05-28T04:56:17.406Z,7.10
2019-05-28T04:57:17.403Z,6.10
2019-05-28T04:58:17.382Z,6.80
2019-05-28T04:59:17.389Z,5.80
2019-05-28T05:00:17.380Z,4.90
2019-05-28T05:01:17.355Z,8.00
2019-05-28T05:02:17.352Z,5.70
2019-05-28T05:03:17.324Z,6.80
2019-05-28T05:04:17.338Z,6.80
2019-05-28T05:05:17.344Z,5.40
2019-05-28T05:06:17.313Z,6.30
2019-05-28T05:07:17.349Z,6.50
2019-05-28T05:08:17.283Z,7.20
2019-05-28T05:09:17.263Z,5.20
2019-05-28T05:10:19.174Z,7.90
2019-05-28T05:11:17.281Z,7.00
2019-05-28T05:12:17.234Z,7.00
2019-05-28T05:13:17.223Z,5.60
2019-05-28T05:14:17.272Z,5.90
2019-05-28T05:15:17.203Z,5.20
2019-05-28T05:16:17.215Z,7.10
2019-05-28T05:17:17.178Z,6.10
2019-05-28T05:18:17.197Z,5.50
2019-05-28T05:19:17.152Z,7.40
2019-05-28T05:20:17.160Z,5.70
2019-05-28T05:21:17.150Z,5.80
2019-05-28T05:22:17.133Z,5.60
2019-05-28T05:23:17.161Z,10.70
2019-05-28T05:24:17.106Z,7.90
2019-05-28T05:25:17.109Z,4.40
2019-05-28T05:26:17.099Z,6.60
2019-05-28T05:27:17.079Z,7.20
2019-05-28T05:28:17.057Z,5.80
2019-05-28T05:29:17.049Z,4.90
2019-05-28T05:30:17.058Z,7.20
2019-05-28T05:31:17.059Z,7.80
2019-05-28T05:32:17.019Z,6.90
2019-05-28T05:33:20.374Z,7.90
2019-05-28T05:34:16.988Z,9.30
2019-05-28T05:35:16.986Z,8.30
2019-05-28T05:36:16.989Z,7.00
2019-05-28T05:37:16.966Z,6.00
2019-05-28T05:38:16.956Z,8.00
2019-05-28T05:39:16.934Z,8.50
2019-05-28T05:40:16.927Z,8.50
2019-05-28T05:41:16.937Z,5.90
2019-05-28T05:42:16.902Z,5.90
2019-05-28T05:43:16.921Z,8.90
2019-05-28T05:44:16.888Z,6.40
2019-05-28T05:45:16.875Z,7.20
2019-05-28T05:46:16.874Z,6.80
2019-05-28T05:47:16.861Z,5.60
2019-05-28T05:48:16.843Z,6.50
2019-05-28T05:49:16.837Z,9.10
2019-05-28T05:50:16.827Z,7.40
2019-05-28T05:51:16.823Z,8.50
2019-05-28T05:52:16.796Z,9.60
2019-05-28T05:53:16.809Z,8.00
2019-05-28T05:54:16.772Z,7.50
2019-05-28T05:55:16.772Z,7.90
2019-05-28T05:56:16.783Z,8.20
2019-05-28T05:57:16.749Z,7.50
2019-05-28T05:58:16.737Z,9.80
2019-05-28T05:59:16.721Z,7.50
2019-05-28T06:00:16.712Z,6.60
2019-05-28T06:01:16.750Z,8.70
2019-05-28T06:02:16.702Z,10.50
2019-05-28T06:03:16.685Z,8.00
2019-05-28T06:04:16.670Z,6.20
2019-05-28T06:05:16.657Z,7.30
2019-05-28T06:06:16.675Z,5.90
2019-05-28T06:07:16.654Z,10.40
2019-05-28T06:08:16.676Z,7.20
2019-05-28T06:09:16.616Z,8.80
2019-05-28T06:10:16.606Z,5.10
2019-05-28T06:11:16.587Z,6.60
2019-05-28T06:12:16.597Z,6.80
2019-05-28T06:13:16.573Z,8.00
2019-05-28T06:14:16.565Z,8.60
2019-05-28T06:15:16.555Z,7.00
2019-05-28T06:16:16.554Z,6.80
2019-05-28T06:17:16.553Z,5.60
2019-05-28T06:18:16.514Z,6.60
2019-05-28T06:19:16.523Z,7.50
2019-05-28T06:20:16.503Z,6.80
2019-05-28T06:21:18.927Z,7.80
2019-05-28T06:22:16.501Z,8.20
2019-05-28T06:23:16.458Z,5.60
2019-05-28T06:24:16.449Z,7.40
2019-05-28T06:25:16.442Z,5.80
2019-05-28T06:26:16.424Z,6.10
2019-05-28T06:27:19.284Z,6.20
2019-05-28T06:28:16.409Z,5.30
2019-05-28T06:29:16.423Z,7.00
2019-05-28T06:30:16.397Z,7.30
2019-05-28T06:31:16.373Z,7.60
2019-05-28T06:32:16.382Z,6.70
2019-05-28T06:33:16.357Z,5.60
2019-05-28T06:34:16.356Z,7.40
2019-05-28T06:35:16.333Z,5.90
2019-05-28T06:36:16.344Z,6.60
2019-05-28T06:37:16.328Z,6.10
2019-05-28T06:38:16.295Z,6.40
2019-05-28T06:39:16.314Z,7.30
2019-05-28T06:40:16.279Z,5.70
2019-05-28T06:41:16.274Z,6.10
2019-05-28T06:42:16.281Z,5.20
2019-05-28T06:43:16.254Z,4.80
2019-05-28T06:44:16.239Z,5.40
2019-05-28T06:45:16.236Z,7.40
2019-05-28T06:46:16.228Z,5.40
2019-05-28T06:47:16.225Z,7.00
2019-05-28T06:48:16.192Z,8.10
2019-05-28T06:49:16.179Z,7.60
2019-05-28T06:50:16.166Z,6.10
2019-05-28T06:51:16.165Z,6.30
2019-05-28T06:52:16.179Z,6.00
2019-05-28T06:53:16.139Z,8.20
2019-05-28T06:54:16.130Z,7.30
2019-05-28T06:55:16.112Z,7.20
2019-05-28T06:56:16.124Z,6.20
2019-05-28T06:57:22.639Z,6.90
2019-05-28T06:58:17.078Z,5.70
2019-05-28T06:59:16.078Z,5.20
2019-05-28T07:00:16.066Z,7.90
2019-05-28T07:01:16.050Z,6.20
2019-05-28T07:02:16.064Z,8.00
2019-05-28T07:03:16.025Z,6.60
2019-05-28T07:04:31.404Z,6.90
2019-05-28T07:05:17.006Z,3.30
2019-05-28T07:06:16.003Z,5.00
2019-05-28T07:07:15.998Z,5.80
2019-05-28T07:08:15.974Z,7.60
2019-05-28T07:09:15.965Z,6.80
2019-05-28T07:10:15.954Z,6.30
2019-05-28T07:11:15.949Z,7.20
2019-05-28T07:12:18.015Z,6.10
2019-05-28T07:13:15.923Z,6.90
2019-05-28T07:14:15.915Z,5.90
2019-05-28T07:15:15.916Z,6.20
2019-05-28T07:16:15.888Z,6.00
2019-05-28T07:17:15.898Z,6.80
2019-05-28T07:18:15.863Z,4.90
2019-05-28T07:19:24.695Z,6.90
2019-05-28T07:20:16.852Z,7.60
2019-05-28T07:21:15.838Z,6.00
2019-05-28T07:22:15.842Z,6.80
2019-05-28T07:23:15.826Z,7.20
2019-05-28T07:24:15.806Z,4.80
2019-05-28T07:25:15.807Z,6.30
2019-05-28T07:26:15.784Z,5.80
2019-05-28T07:27:15.788Z,6.30
2019-05-28T07:28:15.760Z,6.40
2019-05-28T07:29:15.749Z,5.90
2019-05-28T07:30:15.735Z,6.50
2019-05-28T07:31:15.733Z,6.60
2019-05-28T07:32:15.732Z,6.30
2019-05-28T07:33:15.712Z,7.40
2019-05-28T07:34:29.766Z,7.40
2019-05-28T07:35:16.681Z,5.80
2019-05-28T07:36:15.672Z,5.50
2019-05-28T07:37:15.664Z,6.60
2019-05-28T07:38:15.693Z,9.20
2019-05-28T07:39:15.640Z,7.50
2019-05-28T07:40:30.301Z,7.60
2019-05-28T07:41:16.620Z,6.90
2019-05-28T07:42:29.833Z,6.10
2019-05-28T07:43:16.617Z,6.10
2019-05-28T07:44:15.591Z,6.10
2019-05-28T07:45:15.591Z,6.10
2019-05-28T07:46:15.574Z,6.10
2019-05-28T07:47:15.553Z,4.40
2019-05-28T07:48:15.565Z,5.30
2019-05-28T07:49:15.543Z,6.20
2019-05-28T07:50:15.528Z,8.00
2019-05-28T07:51:15.522Z,8.80
2019-05-28T07:52:15.508Z,5.10
2019-05-28T07:53:15.527Z,5.80
2019-05-28T07:54:15.481Z,5.30
2019-05-28T07:55:15.479Z,5.20
2019-05-28T07:56:15.482Z,6.50
2019-05-28T07:57:15.462Z,5.30
2019-05-28T07:58:15.490Z,6.20
2019-05-28T07:59:15.431Z,7.50
2019-05-28T08:00:15.438Z,5.90
2019-05-28T08:01:15.414Z,6.60
2019-05-28T08:02:15.402Z,4.80
2019-05-28T08:03:15.416Z,5.90
2019-05-28T08:04:15.388Z,5.50
2019-05-28T08:05:17.211Z,6.90
2019-05-28T08:06:15.367Z,5.90
2019-05-28T08:07:15.349Z,4.70
2019-05-28T08:08:15.356Z,7.20
2019-05-28T08:09:15.334Z,5.00
2019-05-28T08:10:15.326Z,4.70
2019-05-28T08:11:15.337Z,6.40
2019-05-28T08:12:15.299Z,4.70
2019-05-28T08:13:15.303Z,7.10
2019-05-28T08:14:15.294Z,6.70
2019-05-28T08:15:15.270Z,6.10
2019-05-28T08:16:18.573Z,6.90
2019-05-28T08:17:15.248Z,7.10
2019-05-28T08:18:15.277Z,6.60
2019-05-28T08:19:15.221Z,7.20
2019-05-28T08:20:18.325Z,6.80
2019-05-28T08:21:15.231Z,6.30
2019-05-28T08:22:15.189Z,5.20
2019-05-28T08:23:15.206Z,6.00
2019-05-28T08:24:15.179Z,9.50
2019-05-28T08:25:27.808Z,6.10
2019-05-28T08:26:16.220Z,7.30
2019-05-28T08:27:15.144Z,7.50
2019-05-28T08:28:20.015Z,6.90
2019-05-28T08:29:16.120Z,6.30
2019-05-28T08:30:15.111Z,6.60
2019-05-28T08:31:18.845Z,6.80
2019-05-28T08:32:16.083Z,6.50
2019-05-28T08:33:15.092Z,6.60
2019-05-28T08:34:19.137Z,6.30
2019-05-28T08:35:15.063Z,5.10
2019-05-28T08:36:15.045Z,7.40
2019-05-28T08:37:15.038Z,5.90
2019-05-28T08:38:15.053Z,7.00
2019-05-28T08:39:15.012Z,7.80
2019-05-28T08:40:14.999Z,5.30
2019-05-28T08:41:14.997Z,7.80
2019-05-28T08:42:14.983Z,11.70
2019-05-28T08:43:14.984Z,7.50
2019-05-28T08:44:14.987Z,6.20
2019-05-28T08:45:14.962Z,6.70
2019-05-28T08:46:14.935Z,6.00
2019-05-28T08:47:14.932Z,5.50
2019-05-28T08:48:15.065Z,6.00
2019-05-28T08:49:14.910Z,6.80
2019-05-28T08:50:14.899Z,7.20
2019-05-28T08:51:14.884Z,6.80
2019-05-28T08:52:14.872Z,8.00
2019-05-28T08:53:14.877Z,6.50
2019-05-28T08:54:14.856Z,7.40
2019-05-28T08:55:14.848Z,5.70
2019-05-28T08:56:14.832Z,5.70
2019-05-28T08:57:14.824Z,6.30
2019-05-28T08:58:14.825Z,7.10
2019-05-28T08:59:14.806Z,8.40
2019-05-28T09:00:14.807Z,6.60
2019-05-28T09:01:14.780Z,7.60
2019-05-28T09:02:27.312Z,5.90
2019-05-28T09:03:15.770Z,6.90
2019-05-28T09:04:14.746Z,7.10
2019-05-28T09:05:25.863Z,7.00
2019-05-28T09:06:15.719Z,7.00
2019-05-28T09:07:14.750Z,7.10
2019-05-28T09:08:14.707Z,5.70
2019-05-28T09:09:14.706Z,7.20
2019-05-28T09:10:14.682Z,5.70
2019-05-28T09:11:14.740Z,6.30
2019-05-28T09:12:14.657Z,7.10
2019-05-28T09:13:14.743Z,5.50
2019-05-28T09:14:14.653Z,7.50
2019-05-28T09:15:14.619Z,5.50
2019-05-28T09:16:14.610Z,6.80
2019-05-28T09:17:14.603Z,5.80
2019-05-28T09:18:14.589Z,8.30
2019-05-28T09:19:14.600Z,5.40
2019-05-28T09:20:14.575Z,5.80
2019-05-28T09:21:14.564Z,6.90
2019-05-28T09:22:25.272Z,7.00
2019-05-28T09:23:15.536Z,7.60
2019-05-28T09:24:14.540Z,8.00
2019-05-28T09:25:14.512Z,7.80
2019-05-28T09:26:14.504Z,7.20
2019-05-28T09:27:14.494Z,7.60
2019-05-28T09:28:29.442Z,4.80
2019-05-28T09:29:15.482Z,5.40
2019-05-28T09:30:14.486Z,7.00
2019-05-28T09:31:14.453Z,8.90
2019-05-28T09:32:14.449Z,7.20
2019-05-28T09:33:14.442Z,5.70
2019-05-28T09:34:14.442Z,5.50
2019-05-28T09:35:14.409Z,6.30
2019-05-28T09:36:14.396Z,7.30
2019-05-28T09:37:14.381Z,5.80
2019-05-28T09:38:14.374Z,4.90
2019-05-28T09:39:14.383Z,5.10
2019-05-28T09:40:14.358Z,6.70
2019-05-28T09:41:14.352Z,4.90
2019-05-28T09:42:14.332Z,6.30
2019-05-28T09:43:14.338Z,7.00
2019-05-28T09:44:14.338Z,6.50
2019-05-28T09:45:22.437Z,6.20
2019-05-28T09:46:15.290Z,6.20
2019-05-28T09:47:14.281Z,5.70
2019-05-28T09:48:14.271Z,7.40
2019-05-28T09:49:14.270Z,5.80
2019-05-28T09:50:29.880Z,4.40
2019-05-28T09:51:15.255Z,6.30
2019-05-28T09:52:14.236Z,6.10
2019-05-28T09:53:14.262Z,4.70
2019-05-28T09:54:14.225Z,5.40
2019-05-28T09:55:14.222Z,5.60
2019-05-28T09:56:14.186Z,5.30
2019-05-28T09:57:14.175Z,5.90
2019-05-28T09:58:14.167Z,4.60
2019-05-28T09:59:14.186Z,4.30
2019-05-28T10:00:15.146Z,4.90
2019-05-28T10:01:14.135Z,4.50
2019-05-28T10:02:14.129Z,5.00
2019-05-28T10:03:14.115Z,3.70
2019-05-28T10:04:14.112Z,5.00
2019-05-28T10:05:14.117Z,4.20
2019-05-28T10:06:17.469Z,3.30
2019-05-28T10:07:14.108Z,2.90
2019-05-28T10:08:14.060Z,5.40
2019-05-28T10:09:14.059Z,5.70
2019-05-28T10:10:14.139Z,5.30
2019-05-28T10:11:14.034Z,4.90
2019-05-28T10:12:14.033Z,5.90
2019-05-28T10:13:14.017Z,5.10
2019-05-28T10:14:14.008Z,3.50
2019-05-28T10:15:14.011Z,3.40
2019-05-28T10:16:14.033Z,3.60
2019-05-28T10:17:14.004Z,3.30
2019-05-28T10:18:13.986Z,4.00
2019-05-28T10:19:13.963Z,3.50
2019-05-28T10:20:13.971Z,2.80
2019-05-28T10:21:18.718Z,2.70
2019-05-28T10:22:14.924Z,3.40
2019-05-28T10:23:13.917Z,2.70
2019-05-28T10:24:13.927Z,4.10
2019-05-28T10:25:14.000Z,4.20
2019-05-28T10:26:14.037Z,3.30
2019-05-28T10:27:14.209Z,3.90
2019-05-28T10:28:13.895Z,4.40
2019-05-28T10:29:13.866Z,4.50
2019-05-28T10:30:14.123Z,3.60
2019-05-28T10:31:13.841Z,3.90
2019-05-28T10:32:13.844Z,3.30
2019-05-28T10:33:13.837Z,3.50
2019-05-28T10:34:13.810Z,5.40
2019-05-28T10:35:13.826Z,3.80
2019-05-28T10:36:13.793Z,4.60
2019-05-28T10:37:13.783Z,5.10
2019-05-28T10:38:16.809Z,3.40
2019-05-28T10:39:13.777Z,5.00
2019-05-28T10:40:13.763Z,3.20
2019-05-28T10:41:13.739Z,4.80
2019-05-28T10:42:13.726Z,6.10
2019-05-28T10:43:13.737Z,4.00
2019-05-28T10:44:13.756Z,5.60
2019-05-28T10:45:13.730Z,5.10
2019-05-28T10:46:14.014Z,4.40
2019-05-28T10:47:13.672Z,5.60
2019-05-28T10:48:13.685Z,5.40
2019-05-28T10:49:13.679Z,4.50
2019-05-28T10:50:13.672Z,3.90
2019-05-28T10:51:13.631Z,5.20
2019-05-28T10:52:13.623Z,2.80
2019-05-28T10:53:13.760Z,3.50
2019-05-28T10:54:13.597Z,4.90
2019-05-28T10:55:15.970Z,12.50
2019-05-28T10:56:13.587Z,8.90
2019-05-28T10:57:13.572Z,5.60
2019-05-28T10:58:13.561Z,5.00
2019-05-28T10:59:13.544Z,4.40
2019-05-28T11:00:13.552Z,4.20
2019-05-28T11:01:13.528Z,4.20
2019-05-28T11:02:13.523Z,5.10
2019-05-28T11:03:13.507Z,5.50
2019-05-28T11:04:13.495Z,3.20
2019-05-28T11:05:13.501Z,3.00
2019-05-28T11:06:13.471Z,3.60
2019-05-28T11:07:13.467Z,3.80
2019-05-28T11:08:13.453Z,3.70
2019-05-28T11:09:13.444Z,3.90
2019-05-28T11:10:23.972Z,4.70
2019-05-28T11:11:14.429Z,5.50
2019-05-28T11:12:13.424Z,4.40
2019-05-28T11:13:13.400Z,5.20
2019-05-28T11:14:13.383Z,2.90
2019-05-28T11:15:13.375Z,5.70
2019-05-28T11:16:13.385Z,4.20
2019-05-28T11:17:13.363Z,6.30
2019-05-28T11:18:13.345Z,4.60
2019-05-28T11:19:13.335Z,7.40
2019-05-28T11:20:13.318Z,6.20
2019-05-28T11:21:13.333Z,7.90
2019-05-28T11:22:13.307Z,4.30
2019-05-28T11:23:13.288Z,4.80
2019-05-28T11:24:13.278Z,8.10
2019-05-28T11:25:13.282Z,5.60
2019-05-28T11:26:13.277Z,4.20
2019-05-28T11:27:13.247Z,4.40
2019-05-28T11:28:13.237Z,2.80
2019-05-28T11:29:13.229Z,4.10
2019-05-28T11:30:13.217Z,3.80
2019-05-28T11:31:13.224Z,3.50
2019-05-28T11:32:13.195Z,3.10
2019-05-28T11:33:17.098Z,3.80
2019-05-28T11:34:13.174Z,3.00
2019-05-28T11:35:13.183Z,4.40
2019-05-28T11:36:13.166Z,3.20
2019-05-28T11:37:13.132Z,2.90
2019-05-28T11:38:13.131Z,4.20
2019-05-28T11:39:13.119Z,2.40
2019-05-28T11:40:13.110Z,1.70
2019-05-28T11:41:13.118Z,2.50
2019-05-28T11:42:13.085Z,2.20
2019-05-28T11:43:13.073Z,2.20
2019-05-28T11:44:13.057Z,1.60
2019-05-28T11:45:14.713Z,1.60
2019-05-28T11:46:13.052Z,1.80
2019-05-28T11:47:13.032Z,2.60
2019-05-28T11:48:13.053Z,1.10
2019-05-28T11:49:13.015Z,1.20
2019-05-28T11:50:13.001Z,4.60
2019-05-28T11:51:13.005Z,5.30
2019-05-28T11:52:12.970Z,2.40
2019-05-28T11:53:12.974Z,4.60
2019-05-28T11:54:12.961Z,1.50
2019-05-28T11:55:12.948Z,3.20
2019-05-28T11:56:12.927Z,2.50
2019-05-28T11:57:12.953Z,2.70
2019-05-28T11:58:12.931Z,2.80
2019-05-28T11:59:12.903Z,2.40
2019-05-28T12:00:12.893Z,1.70
2019-05-28T12:01:12.885Z,1.20
2019-05-28T12:02:12.892Z,2.00
2019-05-28T12:03:12.855Z,2.70
2019-05-28T12:04:12.849Z,2.20
2019-05-28T12:05:12.833Z,1.50
2019-05-28T12:06:12.826Z,1.50
2019-05-28T12:07:25.625Z,2.30
2019-05-28T12:08:13.805Z,2.30
2019-05-28T12:09:12.790Z,1.80
2019-05-28T12:10:12.799Z,1.30
2019-05-28T12:11:12.785Z,2.10
2019-05-28T12:12:12.777Z,2.90
2019-05-28T12:13:12.748Z,2.00
2019-05-28T12:14:12.737Z,2.30
2019-05-28T12:15:12.724Z,3.40
2019-05-28T12:16:12.716Z,1.10
2019-05-28T12:17:12.722Z,2.10
2019-05-28T12:18:12.694Z,2.10
2019-05-28T12:19:12.682Z,1.10
2019-05-28T12:20:13.267Z,2.70
2019-05-28T12:21:12.676Z,1.20
2019-05-28T12:22:12.666Z,2.70
2019-05-28T12:23:12.638Z,1.70
2019-05-28T12:24:12.622Z,1.10
2019-05-28T12:25:12.659Z,1.20
2019-05-28T12:26:12.609Z,1.70
2019-05-28T12:27:12.608Z,1.60
2019-05-28T12:28:12.585Z,1.50
2019-05-28T12:29:12.569Z,1.80
2019-05-28T12:30:12.561Z,1.70
2019-05-28T12:31:12.558Z,1.70
2019-05-28T12:32:12.665Z,2.40
2019-05-28T12:33:12.541Z,1.60
2019-05-28T12:34:12.550Z,2.20
2019-05-28T12:35:27.160Z,2.50
2019-05-28T12:36:13.495Z,1.90
2019-05-28T12:37:12.486Z,2.00
2019-05-28T12:38:12.492Z,1.80
2019-05-28T12:39:12.469Z,2.70
2019-05-28T12:40:12.461Z,1.50
2019-05-28T12:41:12.438Z,1.30
2019-05-28T12:42:12.430Z,1.80
2019-05-28T12:43:12.438Z,1.20
2019-05-28T12:44:12.448Z,1.70
2019-05-28T12:45:12.408Z,2.20
2019-05-28T12:46:12.394Z,1.40
2019-05-28T12:47:14.852Z,1.70
2019-05-28T12:48:13.359Z,1.90
2019-05-28T12:49:12.355Z,1.70
2019-05-28T12:50:20.074Z,1.50
2019-05-28T12:51:13.342Z,1.10
2019-05-28T12:52:12.340Z,1.60
2019-05-28T12:53:12.336Z,0.60
2019-05-28T12:54:12.309Z,1.70
2019-05-28T12:55:12.292Z,1.70
2019-05-28T12:56:12.278Z,1.20
2019-05-28T12:57:12.294Z,1.20
2019-05-28T12:58:12.283Z,1.30
2019-05-28T12:59:12.248Z,1.00
2019-05-28T13:00:12.236Z,1.70
2019-05-28T13:01:12.233Z,1.10
2019-05-28T13:02:12.221Z,1.60
2019-05-28T13:03:12.226Z,0.60
2019-05-28T13:04:12.377Z,0.80
2019-05-28T13:05:12.214Z,1.40
2019-05-28T13:06:12.179Z,1.50
2019-05-28T13:07:12.163Z,1.60
2019-05-28T13:08:12.180Z,1.30
2019-05-28T13:09:12.145Z,2.50
2019-05-28T13:10:12.128Z,0.70
2019-05-28T13:11:12.129Z,0.90
2019-05-28T13:12:12.113Z,0.80
2019-05-28T13:13:12.110Z,1.60
2019-05-28T13:14:12.086Z,1.20
2019-05-28T13:15:12.077Z,1.00
2019-05-28T13:16:12.072Z,1.00
2019-05-28T13:17:12.059Z,1.10